sensor_id;sensor_type;location;lat;lon;timestamp;P1;durP1;ratioP1;P2;durP2;ratioP2
25609;SDS011;13479;49.044;8.716;2023-04-15T04:02:41;10.07;;;3.60;;
25609;SDS011;13479;49.044;8.716;2023-04-15T04:05:07;9.33;;;3.40;;
25609;SDS011;13479;49.044;8.716;2023-04-15T04:07:32;6.93;;;3.20;;
25609;SDS011;13479;49.044;8.716;2023-04-15T04:09:58;7.63;;;3.33;;
25609;SDS011;13479;49.044;8.716;2023-04-15T04:12:23;9.43;;;3.27;;
25609;SDS011;13479;49.044;8.716;2023-04-15T04:14:48;8.17;;;3.47;;
25609;SDS011;13479;49.044;8.716;2023-04-15T04:17:14;6.77;;;3.27;;
25609;SDS011;13479;49.044;8.716;2023-04-15T04:19:39;7.90;;;3.20;;
25609;SDS011;13479;49.044;8.716;2023-04-15T04:22:05;10.17;;;3.70;;
25609;SDS011;13479;49.044;8.716;2023-04-15T04:24:30;8.10;;;3.63;;
25609;SDS011;13479;49.044;8.716;2023-04-15T04:26:55;8.27;;;3.33;;
25609;SDS011;13479;49.044;8.716;2023-04-15T04:29:21;8.83;;;3.40;;
25609;SDS011;13479;49.044;8.716;2023-04-15T04:31:46;7.17;;;3.17;;
25609;SDS011;13479;49.044;8.716;2023-04-15T04:34:12;8.70;;;3.70;;
25609;SDS011;13479;49.044;8.716;2023-04-15T04:36:38;6.73;;;3.13;;
25609;SDS011;13479;49.044;8.716;2023-04-15T04:39:03;8.67;;;3.33;;
25609;SDS011;13479;49.044;8.716;2023-04-15T04:41:28;8.70;;;3.30;;
25609;SDS011;13479;49.044;8.716;2023-04-15T04:43:53;5.87;;;3.17;;
25609;SDS011;13479;49.044;8.716;2023-04-15T04:46:19;9.50;;;3.30;;
25609;SDS011;13479;49.044;8.716;2023-04-15T04:48:44;8.70;;;3.30;;
25609;SDS011;13479;49.044;8.716;2023-04-15T04:51:09;9.07;;;3.67;;
25609;SDS011;13479;49.044;8.716;2023-04-15T04:53:35;6.73;;;2.80;;
25609;SDS011;13479;49.044;8.716;2023-04-15T04:56:01;11.00;;;3.00;;
25609;SDS011;13479;49.044;8.716;2023-04-15T04:58:27;5.53;;;3.07;;
25609;SDS011;13479;49.044;8.716;2023-04-15T05:00:52;7.90;;;3.40;;
25609;SDS011;13479;49.044;8.716;2023-04-15T05:03:17;9.00;;;3.53;;
25609;SDS011;13479;49.044;8.716;2023-04-15T05:05:43;9.53;;;3.33;;
25609;SDS011;13479;49.044;8.716;2023-04-15T05:08:08;6.07;;;3.67;;
25609;SDS011;13479;49.044;8.716;2023-04-15T05:10:33;7.47;;;3.13;;
25609;SDS011;13479;49.044;8.716;2023-04-15T05:12:58;9.90;;;4.03;;
25609;SDS011;13479;49.044;8.716;2023-04-15T05:15:24;7.97;;;3.80;;
25609;SDS011;13479;49.044;8.716;2023-04-15T05:17:49;19.27;;;7.70;;
25609;SDS011;13479;49.044;8.716;2023-04-15T05:20:15;12.83;;;5.83;;
25609;SDS011;13479;49.044;8.716;2023-04-15T05:22:41;11.90;;;4.50;;
25609;SDS011;13479;49.044;8.716;2023-04-15T05:25:06;7.80;;;2.93;;
25609;SDS011;13479;49.044;8.716;2023-04-15T05:27:32;6.60;;;2.87;;
25609;SDS011;13479;49.044;8.716;2023-04-15T05:29:57;11.20;;;3.30;;
25609;SDS011;13479;49.044;8.716;2023-04-15T05:32:23;5.47;;;3.17;;
25609;SDS011;13479;49.044;8.716;2023-04-15T05:34:48;10.90;;;4.63;;
25609;SDS011;13479;49.044;8.716;2023-04-15T05:37:13;10.50;;;7.03;;
25609;SDS011;13479;49.044;8.716;2023-04-15T05:39:39;6.83;;;4.60;;
25609;SDS011;13479;49.044;8.716;2023-04-15T05:42:04;9.60;;;4.10;;
25609;SDS011;13479;49.044;8.716;2023-04-15T05:44:30;11.10;;;4.30;;
25609;SDS011;13479;49.044;8.716;2023-04-15T05:46:55;14.90;;;4.72;;
25609;SDS011;13479;49.044;8.716;2023-04-15T05:49:21;39.40;;;11.20;;
25609;SDS011;13479;49.044;8.716;2023-04-15T05:51:46;30.92;;;10.35;;
25609;SDS011;13479;49.044;8.716;2023-04-15T05:54:12;28.92;;;10.20;;
25609;SDS011;13479;49.044;8.716;2023-04-15T05:56:37;31.83;;;10.93;;
25609;SDS011;13479;49.044;8.716;2023-04-15T05:59:02;28.15;;;9.60;;
25609;SDS011;13479;49.044;8.716;2023-04-15T06:01:28;22.40;;;8.60;;
25609;SDS011;13479;49.044;8.716;2023-04-15T06:03:54;22.35;;;8.40;;
25609;SDS011;13479;49.044;8.716;2023-04-15T06:06:19;22.15;;;7.63;;
25609;SDS011;13479;49.044;8.716;2023-04-15T06:08:45;20.48;;;8.40;;
25609;SDS011;13479;49.044;8.716;2023-04-15T06:11:10;19.52;;;7.35;;
25609;SDS011;13479;49.044;8.716;2023-04-15T06:13:36;22.13;;;7.50;;
25609;SDS011;13479;49.044;8.716;2023-04-15T06:16:01;17.02;;;6.85;;
25609;SDS011;13479;49.044;8.716;2023-04-15T06:18:26;14.50;;;6.35;;
25609;SDS011;13479;49.044;8.716;2023-04-15T06:20:51;16.33;;;6.15;;
25609;SDS011;13479;49.044;8.716;2023-04-15T06:23:17;13.98;;;5.90;;
25609;SDS011;13479;49.044;8.716;2023-04-15T06:25:42;15.88;;;6.50;;
25609;SDS011;13479;49.044;8.716;2023-04-15T06:28:07;11.90;;;5.20;;
25609;SDS011;13479;49.044;8.716;2023-04-15T06:30:33;13.90;;;5.80;;
25609;SDS011;13479;49.044;8.716;2023-04-15T06:32:59;10.23;;;4.80;;
25609;SDS011;13479;49.044;8.716;2023-04-15T06:35:25;10.35;;;5.03;;
25609;SDS011;13479;49.044;8.716;2023-04-15T06:37:51;10.07;;;4.80;;
25609;SDS011;13479;49.044;8.716;2023-04-15T06:40:16;9.77;;;5.10;;
25609;SDS011;13479;49.044;8.716;2023-04-15T06:42:42;11.55;;;5.05;;
25609;SDS011;13479;49.044;8.716;2023-04-15T06:45:07;8.38;;;4.45;;
25609;SDS011;13479;49.044;8.716;2023-04-15T06:47:33;10.98;;;4.78;;
25609;SDS011;13479;49.044;8.716;2023-04-15T06:49:58;10.88;;;4.82;;
25609;SDS011;13479;49.044;8.716;2023-04-15T06:52:23;8.88;;;4.63;;
25609;SDS011;13479;49.044;8.716;2023-04-15T06:54:49;12.27;;;6.40;;
25609;SDS011;13479;49.044;8.716;2023-04-15T06:57:14;19.38;;;10.65;;
25609;SDS011;13479;49.044;8.716;2023-04-15T06:59:40;13.75;;;8.15;;
25609;SDS011;13479;49.044;8.716;2023-04-15T07:02:06;12.07;;;5.72;;
25609;SDS011;13479;49.044;8.716;2023-04-15T07:04:36;7.80;;;4.25;;
25609;SDS011;13479;49.044;8.716;2023-04-15T07:07:01;9.15;;;3.40;;
25609;SDS011;13479;49.044;8.716;2023-04-15T07:09:27;7.88;;;3.38;;
25609;SDS011;13479;49.044;8.716;2023-04-15T07:11:52;6.85;;;3.30;;
25609;SDS011;13479;49.044;8.716;2023-04-15T07:14:17;5.63;;;3.22;;
25609;SDS011;13479;49.044;8.716;2023-04-15T07:16:43;10.15;;;3.00;;
25609;SDS011;13479;49.044;8.716;2023-04-15T07:19:08;7.25;;;3.17;;
25609;SDS011;13479;49.044;8.716;2023-04-15T07:21:33;7.60;;;3.00;;
25609;SDS011;13479;49.044;8.716;2023-04-15T07:23:59;6.93;;;2.80;;
25609;SDS011;13479;49.044;8.716;2023-04-15T07:26:24;5.90;;;2.58;;
25609;SDS011;13479;49.044;8.716;2023-04-15T07:28:49;4.72;;;2.65;;
25609;SDS011;13479;49.044;8.716;2023-04-15T07:31:15;37.05;;;3.40;;
25609;SDS011;13479;49.044;8.716;2023-04-15T07:33:41;5.13;;;2.00;;
25609;SDS011;13479;49.044;8.716;2023-04-15T07:36:06;7.65;;;2.88;;
25609;SDS011;13479;49.044;8.716;2023-04-15T07:38:32;6.53;;;2.55;;
25609;SDS011;13479;49.044;8.716;2023-04-15T07:40:57;5.65;;;2.40;;
25609;SDS011;13479;49.044;8.716;2023-04-15T07:43:22;5.00;;;2.30;;
25609;SDS011;13479;49.044;8.716;2023-04-15T07:45:48;7.70;;;2.70;;
25609;SDS011;13479;49.044;8.716;2023-04-15T07:48:13;7.25;;;2.70;;
25609;SDS011;13479;49.044;8.716;2023-04-15T07:50:38;4.35;;;2.30;;
25609;SDS011;13479;49.044;8.716;2023-04-15T07:53:04;13.32;;;2.90;;
25609;SDS011;13479;49.044;8.716;2023-04-15T07:55:30;8.05;;;2.70;;
25609;SDS011;13479;49.044;8.716;2023-04-15T07:57:55;5.07;;;2.67;;
25609;SDS011;13479;49.044;8.716;2023-04-15T08:00:21;6.55;;;2.70;;
25609;SDS011;13479;49.044;8.716;2023-04-15T08:02:46;7.45;;;2.90;;
25609;SDS011;13479;49.044;8.716;2023-04-15T08:05:12;4.82;;;2.40;;
25609;SDS011;13479;49.044;8.716;2023-04-15T08:07:38;5.82;;;2.70;;
25609;SDS011;13479;49.044;8.716;2023-04-15T08:10:04;6.45;;;2.90;;
25609;SDS011;13479;49.044;8.716;2023-04-15T08:12:30;6.22;;;2.70;;
25609;SDS011;13479;49.044;8.716;2023-04-15T08:14:55;6.95;;;3.03;;
25609;SDS011;13479;49.044;8.716;2023-04-15T08:17:21;8.50;;;3.30;;
25609;SDS011;13479;49.044;8.716;2023-04-15T08:19:47;7.20;;;3.35;;
25609;SDS011;13479;49.044;8.716;2023-04-15T08:22:12;6.55;;;3.10;;
25609;SDS011;13479;49.044;8.716;2023-04-15T08:24:38;10.55;;;3.00;;
25609;SDS011;13479;49.044;8.716;2023-04-15T08:27:03;7.05;;;2.97;;
25609;SDS011;13479;49.044;8.716;2023-04-15T08:29:29;9.65;;;2.83;;
25609;SDS011;13479;49.044;8.716;2023-04-15T08:31:55;6.43;;;3.00;;
25609;SDS011;13479;49.044;8.716;2023-04-15T08:34:22;7.22;;;2.90;;
25609;SDS011;13479;49.044;8.716;2023-04-15T08:36:48;6.75;;;2.47;;
25609;SDS011;13479;49.044;8.716;2023-04-15T08:39:13;6.95;;;2.67;;
25609;SDS011;13479;49.044;8.716;2023-04-15T08:41:39;6.03;;;2.58;;
25609;SDS011;13479;49.044;8.716;2023-04-15T08:44:09;7.07;;;2.60;;
25609;SDS011;13479;49.044;8.716;2023-04-15T08:46:35;8.43;;;3.00;;
25609;SDS011;13479;49.044;8.716;2023-04-15T08:49:02;10.05;;;2.90;;
25609;SDS011;13479;49.044;8.716;2023-04-15T08:51:28;5.13;;;2.22;;
25609;SDS011;13479;49.044;8.716;2023-04-15T08:53:54;4.47;;;2.22;;
25609;SDS011;13479;49.044;8.716;2023-04-15T08:56:22;5.90;;;2.45;;
25609;SDS011;13479;49.044;8.716;2023-04-15T08:58:49;4.55;;;2.10;;
25609;SDS011;13479;49.044;8.716;2023-04-15T09:01:14;3.90;;;2.15;;
25609;SDS011;13479;49.044;8.716;2023-04-15T09:03:40;6.35;;;2.10;;
25609;SDS011;13479;49.044;8.716;2023-04-15T09:06:06;5.05;;;2.38;;
25609;SDS011;13479;49.044;8.716;2023-04-15T09:08:32;4.82;;;2.10;;
25609;SDS011;13479;49.044;8.716;2023-04-15T09:11:03;5.38;;;2.13;;
25609;SDS011;13479;49.044;8.716;2023-04-15T09:13:29;4.53;;;2.50;;
25609;SDS011;13479;49.044;8.716;2023-04-15T09:15:55;3.35;;;2.00;;
25609;SDS011;13479;49.044;8.716;2023-04-15T09:18:29;4.72;;;2.22;;
25609;SDS011;13479;49.044;8.716;2023-04-15T09:20:58;8.55;;;2.90;;
25609;SDS011;13479;49.044;8.716;2023-04-15T09:23:29;5.68;;;2.58;;
25609;SDS011;13479;49.044;8.716;2023-04-15T09:25:55;6.88;;;3.00;;
25609;SDS011;13479;49.044;8.716;2023-04-15T09:28:24;6.80;;;2.80;;
25609;SDS011;13479;49.044;8.716;2023-04-15T09:30:56;8.00;;;2.55;;
25609;SDS011;13479;49.044;8.716;2023-04-15T09:33:22;6.32;;;3.08;;
25609;SDS011;13479;49.044;8.716;2023-04-15T09:36:00;6.75;;;3.60;;
25609;SDS011;13479;49.044;8.716;2023-04-15T09:38:29;5.63;;;3.00;;
25609;SDS011;13479;49.044;8.716;2023-04-15T09:40:54;7.53;;;3.38;;
25609;SDS011;13479;49.044;8.716;2023-04-15T09:43:20;8.57;;;3.10;;
25609;SDS011;13479;49.044;8.716;2023-04-15T09:45:49;9.00;;;3.50;;
25609;SDS011;13479;49.044;8.716;2023-04-15T09:48:17;6.50;;;3.40;;
25609;SDS011;13479;49.044;8.716;2023-04-15T09:50:47;7.30;;;3.30;;
25609;SDS011;13479;49.044;8.716;2023-04-15T09:53:17;5.43;;;3.00;;
25609;SDS011;13479;49.044;8.716;2023-04-15T09:55:53;6.93;;;2.90;;
25609;SDS011;13479;49.044;8.716;2023-04-15T09:58:21;6.38;;;3.40;;
25609;SDS011;13479;49.044;8.716;2023-04-15T10:00:51;8.15;;;3.47;;
25609;SDS011;13479;49.044;8.716;2023-04-15T10:03:19;8.10;;;3.17;;
25609;SDS011;13479;49.044;8.716;2023-04-15T10:05:50;6.88;;;3.00;;
25609;SDS011;13479;49.044;8.716;2023-04-15T10:08:17;5.95;;;2.85;;
25609;SDS011;13479;49.044;8.716;2023-04-15T10:10:44;6.03;;;2.90;;
25609;SDS011;13479;49.044;8.716;2023-04-15T10:13:12;8.73;;;2.88;;
25609;SDS011;13479;49.044;8.716;2023-04-15T10:15:41;5.80;;;2.80;;
25609;SDS011;13479;49.044;8.716;2023-04-15T10:18:09;6.32;;;3.17;;
25609;SDS011;13479;49.044;8.716;2023-04-15T10:20:35;10.23;;;3.08;;
25609;SDS011;13479;49.044;8.716;2023-04-15T10:23:01;10.88;;;3.67;;
25609;SDS011;13479;49.044;8.716;2023-04-15T10:25:28;5.88;;;3.33;;
25609;SDS011;13479;49.044;8.716;2023-04-15T10:27:54;9.05;;;3.45;;
25609;SDS011;13479;49.044;8.716;2023-04-15T10:30:20;10.80;;;3.53;;
25609;SDS011;13479;49.044;8.716;2023-04-15T10:32:46;6.18;;;3.30;;
25609;SDS011;13479;49.044;8.716;2023-04-15T10:35:13;8.70;;;3.50;;
25609;SDS011;13479;49.044;8.716;2023-04-15T10:37:39;9.10;;;3.65;;
25609;SDS011;13479;49.044;8.716;2023-04-15T10:43:02;6.93;;;3.50;;
25609;SDS011;13479;49.044;8.716;2023-04-15T10:45:31;9.52;;;2.75;;
25609;SDS011;13479;49.044;8.716;2023-04-15T10:48:00;8.23;;;3.50;;
25609;SDS011;13479;49.044;8.716;2023-04-15T10:50:26;7.15;;;3.05;;
25609;SDS011;13479;49.044;8.716;2023-04-15T10:52:54;13.90;;;3.78;;
25609;SDS011;13479;49.044;8.716;2023-04-15T10:55:22;7.07;;;3.08;;
25609;SDS011;13479;49.044;8.716;2023-04-15T10:57:52;7.28;;;3.60;;
25609;SDS011;13479;49.044;8.716;2023-04-15T11:00:19;6.53;;;2.80;;
25609;SDS011;13479;49.044;8.716;2023-04-15T11:05:19;7.65;;;3.25;;
25609;SDS011;13479;49.044;8.716;2023-04-15T11:12:42;5.70;;;2.40;;
25609;SDS011;13479;49.044;8.716;2023-04-15T11:18:13;7.32;;;2.85;;
25609;SDS011;13479;49.044;8.716;2023-04-15T11:20:50;4.18;;;2.28;;
25609;SDS011;13479;49.044;8.716;2023-04-15T11:23:19;7.80;;;2.97;;
25609;SDS011;13479;49.044;8.716;2023-04-15T11:25:53;5.53;;;2.65;;
25609;SDS011;13479;49.044;8.716;2023-04-15T11:28:19;8.00;;;3.42;;
25609;SDS011;13479;49.044;8.716;2023-04-15T11:30:45;7.05;;;2.72;;
25609;SDS011;13479;49.044;8.716;2023-04-15T11:33:10;7.22;;;2.70;;
25609;SDS011;13479;49.044;8.716;2023-04-15T11:35:38;6.57;;;2.10;;
25609;SDS011;13479;49.044;8.716;2023-04-15T11:38:07;5.70;;;2.10;;
25609;SDS011;13479;49.044;8.716;2023-04-15T11:40:34;6.63;;;2.40;;
25609;SDS011;13479;49.044;8.716;2023-04-15T11:43:07;5.50;;;2.30;;
25609;SDS011;13479;49.044;8.716;2023-04-15T11:45:34;7.78;;;2.50;;
25609;SDS011;13479;49.044;8.716;2023-04-15T11:50:32;5.50;;;2.47;;
25609;SDS011;13479;49.044;8.716;2023-04-15T11:52:59;6.40;;;2.90;;
25609;SDS011;13479;49.044;8.716;2023-04-15T11:55:27;7.05;;;2.70;;
25609;SDS011;13479;49.044;8.716;2023-04-15T12:00:32;4.13;;;2.17;;
25609;SDS011;13479;49.044;8.716;2023-04-15T12:06:05;5.18;;;2.15;;
25609;SDS011;13479;49.044;8.716;2023-04-15T12:08:50;6.35;;;2.90;;
25609;SDS011;13479;49.044;8.716;2023-04-15T12:14:18;5.82;;;2.75;;
25609;SDS011;13479;49.044;8.716;2023-04-15T12:16:47;5.72;;;2.50;;
25609;SDS011;13479;49.044;8.716;2023-04-15T12:19:14;8.38;;;3.08;;
25609;SDS011;13479;49.044;8.716;2023-04-15T12:21:43;8.25;;;3.17;;
25609;SDS011;13479;49.044;8.716;2023-04-15T12:24:10;9.95;;;3.38;;
25609;SDS011;13479;49.044;8.716;2023-04-15T12:29:19;6.18;;;3.47;;
25609;SDS011;13479;49.044;8.716;2023-04-15T12:31:46;5.18;;;2.30;;
25609;SDS011;13479;49.044;8.716;2023-04-15T12:34:13;5.90;;;2.10;;
25609;SDS011;13479;49.044;8.716;2023-04-15T12:36:39;5.43;;;1.83;;
25609;SDS011;13479;49.044;8.716;2023-04-15T12:39:05;5.38;;;1.90;;
25609;SDS011;13479;49.044;8.716;2023-04-15T12:41:31;6.03;;;1.80;;
25609;SDS011;13479;49.044;8.716;2023-04-15T12:43:57;4.15;;;1.83;;
25609;SDS011;13479;49.044;8.716;2023-04-15T12:46:22;3.20;;;1.52;;
25609;SDS011;13479;49.044;8.716;2023-04-15T12:48:48;4.30;;;1.65;;
25609;SDS011;13479;49.044;8.716;2023-04-15T12:51:14;5.45;;;1.42;;
25609;SDS011;13479;49.044;8.716;2023-04-15T12:53:40;2.95;;;1.10;;
25609;SDS011;13479;49.044;8.716;2023-04-15T12:56:05;2.67;;;1.10;;
25609;SDS011;13479;49.044;8.716;2023-04-15T12:58:31;2.65;;;1.17;;
25609;SDS011;13479;49.044;8.716;2023-04-15T13:00:56;3.17;;;1.38;;
25609;SDS011;13479;49.044;8.716;2023-04-15T13:03:21;3.28;;;1.30;;
25609;SDS011;13479;49.044;8.716;2023-04-15T13:05:47;5.10;;;1.70;;
25609;SDS011;13479;49.044;8.716;2023-04-15T13:08:12;5.18;;;1.20;;
25609;SDS011;13479;49.044;8.716;2023-04-15T13:10:37;3.08;;;1.30;;
25609;SDS011;13479;49.044;8.716;2023-04-15T13:13:03;2.38;;;1.20;;
25609;SDS011;13479;49.044;8.716;2023-04-15T13:15:29;3.13;;;1.10;;
25609;SDS011;13479;49.044;8.716;2023-04-15T13:17:54;3.45;;;1.08;;
25609;SDS011;13479;49.044;8.716;2023-04-15T13:20:20;3.85;;;1.70;;
25609;SDS011;13479;49.044;8.716;2023-04-15T13:22:45;4.70;;;1.52;;
25609;SDS011;13479;49.044;8.716;2023-04-15T13:25:10;2.90;;;1.10;;
25609;SDS011;13479;49.044;8.716;2023-04-15T13:27:36;3.53;;;1.10;;
25609;SDS011;13479;49.044;8.716;2023-04-15T13:30:02;4.25;;;1.50;;
25609;SDS011;13479;49.044;8.716;2023-04-15T13:32:28;6.47;;;1.60;;
25609;SDS011;13479;49.044;8.716;2023-04-15T13:34:53;4.05;;;1.20;;
25609;SDS011;13479;49.044;8.716;2023-04-15T13:37:24;5.65;;;1.40;;
25609;SDS011;13479;49.044;8.716;2023-04-15T13:39:53;5.53;;;1.33;;
25609;SDS011;13479;49.044;8.716;2023-04-15T13:42:18;4.55;;;1.55;;
25609;SDS011;13479;49.044;8.716;2023-04-15T13:44:44;3.10;;;1.40;;
25609;SDS011;13479;49.044;8.716;2023-04-15T13:47:09;2.93;;;1.40;;
25609;SDS011;13479;49.044;8.716;2023-04-15T13:49:35;2.58;;;1.20;;
25609;SDS011;13479;49.044;8.716;2023-04-15T13:52:00;3.60;;;1.50;;
25609;SDS011;13479;49.044;8.716;2023-04-15T13:54:25;2.45;;;1.38;;
25609;SDS011;13479;49.044;8.716;2023-04-15T13:56:51;3.97;;;1.50;;
25609;SDS011;13479;49.044;8.716;2023-04-15T13:59:16;2.75;;;1.40;;
25609;SDS011;13479;49.044;8.716;2023-04-15T14:01:41;4.72;;;1.38;;
25609;SDS011;13479;49.044;8.716;2023-04-15T14:04:07;2.70;;;1.50;;
25609;SDS011;13479;49.044;8.716;2023-04-15T14:06:32;5.82;;;1.30;;
25609;SDS011;13479;49.044;8.716;2023-04-15T14:08:58;3.95;;;1.48;;
25609;SDS011;13479;49.044;8.716;2023-04-15T14:11:23;3.03;;;1.23;;
25609;SDS011;13479;49.044;8.716;2023-04-15T14:13:48;3.83;;;1.73;;
25609;SDS011;13479;49.044;8.716;2023-04-15T14:16:13;7.85;;;1.60;;
25609;SDS011;13479;49.044;8.716;2023-04-15T14:18:39;6.13;;;1.40;;
25609;SDS011;13479;49.044;8.716;2023-04-15T14:21:04;4.75;;;1.40;;
25609;SDS011;13479;49.044;8.716;2023-04-15T14:23:31;3.63;;;1.65;;
25609;SDS011;13479;49.044;8.716;2023-04-15T14:25:56;2.03;;;1.23;;
25609;SDS011;13479;49.044;8.716;2023-04-15T14:28:21;2.85;;;1.30;;
25609;SDS011;13479;49.044;8.716;2023-04-15T14:30:47;6.45;;;1.50;;
25609;SDS011;13479;49.044;8.716;2023-04-15T14:33:12;4.03;;;1.48;;
25609;SDS011;13479;49.044;8.716;2023-04-15T14:35:37;4.20;;;1.48;;
25609;SDS011;13479;49.044;8.716;2023-04-15T14:38:03;4.78;;;1.60;;
25609;SDS011;13479;49.044;8.716;2023-04-15T14:40:29;3.78;;;1.58;;
25609;SDS011;13479;49.044;8.716;2023-04-15T14:42:55;3.97;;;1.58;;
25609;SDS011;13479;49.044;8.716;2023-04-15T14:45:20;2.47;;;1.35;;
25609;SDS011;13479;49.044;8.716;2023-04-15T14:47:45;3.37;;;1.30;;
25609;SDS011;13479;49.044;8.716;2023-04-15T14:50:12;3.38;;;1.50;;
25609;SDS011;13479;49.044;8.716;2023-04-15T14:52:37;5.18;;;1.50;;
25609;SDS011;13479;49.044;8.716;2023-04-15T14:55:06;2.88;;;1.10;;
25609;SDS011;13479;49.044;8.716;2023-04-15T14:57:36;3.30;;;1.00;;
25609;SDS011;13479;49.044;8.716;2023-04-15T15:00:03;2.55;;;0.90;;
25609;SDS011;13479;49.044;8.716;2023-04-15T15:02:29;1.75;;;1.00;;
25609;SDS011;13479;49.044;8.716;2023-04-15T15:04:54;2.35;;;0.90;;
25609;SDS011;13479;49.044;8.716;2023-04-15T15:07:21;2.97;;;0.90;;
25609;SDS011;13479;49.044;8.716;2023-04-15T15:09:47;2.13;;;0.80;;
25609;SDS011;13479;49.044;8.716;2023-04-15T15:12:12;1.67;;;0.70;;
25609;SDS011;13479;49.044;8.716;2023-04-15T15:14:37;3.03;;;0.80;;
25609;SDS011;13479;49.044;8.716;2023-04-15T15:17:02;2.75;;;0.70;;
25609;SDS011;13479;49.044;8.716;2023-04-15T15:19:28;1.73;;;0.80;;
25609;SDS011;13479;49.044;8.716;2023-04-15T15:21:53;0.90;;;0.60;;
25609;SDS011;13479;49.044;8.716;2023-04-15T15:24:18;3.15;;;0.90;;
25609;SDS011;13479;49.044;8.716;2023-04-15T15:26:43;2.97;;;0.80;;
25609;SDS011;13479;49.044;8.716;2023-04-15T15:29:09;3.50;;;0.75;;
25609;SDS011;13479;49.044;8.716;2023-04-15T15:31:34;2.77;;;1.00;;
25609;SDS011;13479;49.044;8.716;2023-04-15T15:34:00;2.25;;;0.85;;
25609;SDS011;13479;49.044;8.716;2023-04-15T15:36:25;1.75;;;1.00;;
25609;SDS011;13479;49.044;8.716;2023-04-15T15:38:51;1.30;;;0.82;;
25609;SDS011;13479;49.044;8.716;2023-04-15T15:41:16;1.93;;;1.00;;
25609;SDS011;13479;49.044;8.716;2023-04-15T15:43:42;1.50;;;0.80;;
25609;SDS011;13479;49.044;8.716;2023-04-15T15:46:07;2.88;;;0.88;;
25609;SDS011;13479;49.044;8.716;2023-04-15T15:48:33;1.30;;;0.70;;
25609;SDS011;13479;49.044;8.716;2023-04-15T15:50:58;0.70;;;0.60;;
25609;SDS011;13479;49.044;8.716;2023-04-15T15:53:23;2.38;;;0.95;;
25609;SDS011;13479;49.044;8.716;2023-04-15T15:55:49;1.85;;;1.10;;
25609;SDS011;13479;49.044;8.716;2023-04-15T15:58:15;3.33;;;1.15;;
25609;SDS011;13479;49.044;8.716;2023-04-15T16:00:40;3.53;;;1.10;;
25609;SDS011;13479;49.044;8.716;2023-04-15T16:03:06;1.63;;;1.00;;
25609;SDS011;13479;49.044;8.716;2023-04-15T16:05:32;1.73;;;1.20;;
25609;SDS011;13479;49.044;8.716;2023-04-15T16:07:57;3.30;;;1.40;;
25609;SDS011;13479;49.044;8.716;2023-04-15T16:10:22;2.05;;;1.00;;
25609;SDS011;13479;49.044;8.716;2023-04-15T16:12:48;2.83;;;1.40;;
25609;SDS011;13479;49.044;8.716;2023-04-15T16:15:13;2.50;;;1.40;;
25609;SDS011;13479;49.044;8.716;2023-04-15T16:17:38;2.17;;;0.98;;
25609;SDS011;13479;49.044;8.716;2023-04-15T16:20:04;1.83;;;1.10;;
25609;SDS011;13479;49.044;8.716;2023-04-15T16:22:31;3.05;;;1.00;;
25609;SDS011;13479;49.044;8.716;2023-04-15T16:24:57;1.50;;;1.17;;
25609;SDS011;13479;49.044;8.716;2023-04-15T16:27:23;1.00;;;0.90;;
25609;SDS011;13479;49.044;8.716;2023-04-15T16:29:49;1.58;;;0.93;;
25609;SDS011;13479;49.044;8.716;2023-04-15T16:32:14;1.83;;;0.80;;
25609;SDS011;13479;49.044;8.716;2023-04-15T16:34:40;3.72;;;0.80;;
25609;SDS011;13479;49.044;8.716;2023-04-15T16:37:06;1.92;;;0.95;;
25609;SDS011;13479;49.044;8.716;2023-04-15T16:39:31;2.35;;;1.10;;
25609;SDS011;13479;49.044;8.716;2023-04-15T16:41:56;1.35;;;1.00;;
25609;SDS011;13479;49.044;8.716;2023-04-15T16:44:23;2.65;;;1.15;;
25609;SDS011;13479;49.044;8.716;2023-04-15T16:46:48;2.25;;;1.08;;
25609;SDS011;13479;49.044;8.716;2023-04-15T16:49:14;2.53;;;1.00;;
25609;SDS011;13479;49.044;8.716;2023-04-15T16:51:39;2.35;;;1.10;;
25609;SDS011;13479;49.044;8.716;2023-04-15T16:54:04;1.35;;;1.00;;
25609;SDS011;13479;49.044;8.716;2023-04-15T16:56:30;1.67;;;1.15;;
25609;SDS011;13479;49.044;8.716;2023-04-15T16:58:55;1.88;;;1.00;;
25609;SDS011;13479;49.044;8.716;2023-04-15T17:01:21;1.77;;;1.20;;
25609;SDS011;13479;49.044;8.716;2023-04-15T17:03:46;2.35;;;1.33;;
25609;SDS011;13479;49.044;8.716;2023-04-15T17:06:12;2.67;;;1.27;;
25609;SDS011;13479;49.044;8.716;2023-04-15T17:08:38;2.15;;;1.40;;
25609;SDS011;13479;49.044;8.716;2023-04-15T17:11:04;1.70;;;1.20;;
25609;SDS011;13479;49.044;8.716;2023-04-15T17:13:30;1.60;;;1.27;;
25609;SDS011;13479;49.044;8.716;2023-04-15T17:15:55;2.13;;;1.48;;
25609;SDS011;13479;49.044;8.716;2023-04-15T17:18:21;2.38;;;1.40;;
25609;SDS011;13479;49.044;8.716;2023-04-15T17:20:46;2.15;;;1.25;;
25609;SDS011;13479;49.044;8.716;2023-04-15T17:23:11;2.22;;;1.63;;
25609;SDS011;13479;49.044;8.716;2023-04-15T17:25:37;2.20;;;1.75;;
25609;SDS011;13479;49.044;8.716;2023-04-15T17:28:02;4.00;;;2.00;;
25609;SDS011;13479;49.044;8.716;2023-04-15T17:30:27;2.55;;;1.50;;
25609;SDS011;13479;49.044;8.716;2023-04-15T17:32:53;2.80;;;2.00;;
25609;SDS011;13479;49.044;8.716;2023-04-15T17:35:18;2.95;;;2.05;;
25609;SDS011;13479;49.044;8.716;2023-04-15T17:37:44;2.20;;;1.75;;
25609;SDS011;13479;49.044;8.716;2023-04-15T17:40:10;4.32;;;2.30;;
25609;SDS011;13479;49.044;8.716;2023-04-15T17:42:36;4.30;;;1.98;;
25609;SDS011;13479;49.044;8.716;2023-04-15T17:45:01;4.03;;;2.30;;
25609;SDS011;13479;49.044;8.716;2023-04-15T17:47:26;5.15;;;2.08;;
25609;SDS011;13479;49.044;8.716;2023-04-15T17:49:52;2.83;;;2.30;;
25609;SDS011;13479;49.044;8.716;2023-04-15T17:52:17;2.95;;;2.15;;
25609;SDS011;13479;49.044;8.716;2023-04-15T17:54:42;3.42;;;1.90;;
25609;SDS011;13479;49.044;8.716;2023-04-15T17:57:09;3.13;;;2.08;;
25609;SDS011;13479;49.044;8.716;2023-04-15T17:59:34;2.40;;;2.20;;
25609;SDS011;13479;49.044;8.716;2023-04-15T18:01:59;4.47;;;2.40;;
25609;SDS011;13479;49.044;8.716;2023-04-15T18:04:25;5.13;;;2.63;;
25609;SDS011;13479;49.044;8.716;2023-04-15T18:06:50;4.15;;;2.50;;
25609;SDS011;13479;49.044;8.716;2023-04-15T18:09:16;4.22;;;2.60;;
25609;SDS011;13479;49.044;8.716;2023-04-15T18:11:41;4.20;;;2.70;;
25609;SDS011;13479;49.044;8.716;2023-04-15T18:14:09;5.10;;;2.60;;
25609;SDS011;13479;49.044;8.716;2023-04-15T18:16:34;4.00;;;2.28;;
25609;SDS011;13479;49.044;8.716;2023-04-15T18:19:00;3.58;;;2.45;;
25609;SDS011;13479;49.044;8.716;2023-04-15T18:21:25;4.68;;;2.65;;
25609;SDS011;13479;49.044;8.716;2023-04-15T18:23:51;4.35;;;2.95;;
25609;SDS011;13479;49.044;8.716;2023-04-15T18:26:16;4.70;;;3.40;;
25609;SDS011;13479;49.044;8.716;2023-04-15T18:28:42;5.13;;;3.65;;
25609;SDS011;13479;49.044;8.716;2023-04-15T18:31:07;4.53;;;3.20;;
25609;SDS011;13479;49.044;8.716;2023-04-15T18:33:32;4.97;;;3.75;;
25609;SDS011;13479;49.044;8.716;2023-04-15T18:35:59;4.65;;;3.20;;
25609;SDS011;13479;49.044;8.716;2023-04-15T18:38:26;4.22;;;3.03;;
25609;SDS011;13479;49.044;8.716;2023-04-15T18:40:52;6.20;;;3.92;;
25609;SDS011;13479;49.044;8.716;2023-04-15T18:43:17;5.32;;;3.72;;
25609;SDS011;13479;49.044;8.716;2023-04-15T18:45:42;4.55;;;3.50;;
25609;SDS011;13479;49.044;8.716;2023-04-15T18:48:08;4.90;;;3.45;;
25609;SDS011;13479;49.044;8.716;2023-04-15T18:50:33;5.55;;;3.60;;
25609;SDS011;13479;49.044;8.716;2023-04-15T18:52:59;5.38;;;3.30;;
25609;SDS011;13479;49.044;8.716;2023-04-15T18:55:24;5.53;;;3.72;;
25609;SDS011;13479;49.044;8.716;2023-04-15T18:57:50;4.70;;;3.53;;
25609;SDS011;13479;49.044;8.716;2023-04-15T19:00:15;4.93;;;3.72;;
25609;SDS011;13479;49.044;8.716;2023-04-15T19:02:41;8.23;;;4.30;;
25609;SDS011;13479;49.044;8.716;2023-04-15T19:05:07;4.50;;;3.47;;
25609;SDS011;13479;49.044;8.716;2023-04-15T19:07:33;4.40;;;3.53;;